Time;durP1;ratioP1;P1;durP2;ratioP2;P2;SDS_P1;SDS_P2;PMS_P1;PMS_P2;Temp;Humidity;BMP_temperature;BMP_pressure;BME280_temperature;BME280_humidity;BME280_pressure;Samples;Min_cycle;Max_cycle;Signal;HPM_P1;HPM_P2
2022/02/07 00:00:17;;;;;;;2.13;0.80;;;;;;;6.01;90.77;99571.66;5042188;28;20468;-83
2022/02/07 00:05:21;;;;;;;1.15;0.55;;;;;;;5.91;89.33;99579.50;5037735;28;20414;-82
2022/02/07 00:07:47;;;;;;;1.05;0.40;;;;;;;5.92;89.57;99580.34;5045861;28;20798;-83
2022/02/07 00:10:12;;;;;;;0.87;0.37;;;;;;;5.84;89.42;99600.28;5043243;28;20401;-83
2022/02/07 00:12:38;;;;;;;1.45;0.25;;;;;;;5.84;89.40;99613.72;5038233;28;20384;-82
2022/02/07 00:15:04;;;;;;;0.60;0.30;;;;;;;5.66;88.50;99619.25;5037303;28;20779;-82
2022/02/07 00:17:29;;;;;;;0.90;0.70;;;;;;;5.58;87.01;99606.97;5046695;28;20414;-83
2022/02/07 00:19:57;;;;;;;2.20;1.10;;;;;;;5.56;87.06;99582.19;5040788;28;20410;-84
2022/02/07 00:22:22;;;;;;;0.55;0.50;;;;;;;5.56;87.18;99549.94;5035939;28;20400;-84
2022/02/07 00:24:48;;;;;;;1.47;1.40;;;;;;;5.47;86.39;99531.69;5038308;28;20490;-83
2022/02/07 00:27:13;;;;;;;5.87;4.67;;;;;;;5.45;86.96;99542.69;5040240;28;20398;-83
2022/02/07 00:29:38;;;;;;;8.75;6.85;;;;;;;5.45;87.24;99579.50;5039329;28;20801;-84
2022/02/07 00:32:04;;;;;;;3.43;2.80;;;;;;;5.45;87.24;99580.31;5047794;28;20391;-84
2022/02/07 00:34:29;;;;;;;5.20;3.50;;;;;;;5.49;87.09;99594.09;5047523;28;20416;-84
2022/02/07 00:36:55;;;;;;;8.07;5.97;;;;;;;5.37;87.34;99620.94;5046780;28;20450;-84
2022/02/07 00:39:28;;;;;;;6.43;3.83;;;;;;;5.25;87.36;99630.84;5044256;28;20463;-84
2022/02/07 00:42:02;;;;;;;3.80;2.72;;;;;;;5.24;87.76;99640.78;5035888;28;20531;-84
2022/02/07 00:44:28;;;;;;;3.50;3.15;;;;;;;5.29;86.94;99653.53;5039172;28;20394;-84
2022/02/07 00:47:06;;;;;;;5.53;3.85;;;;;;;5.39;86.44;99643.03;5038975;28;20405;-84
2022/02/07 00:49:31;;;;;;;3.80;3.50;;;;;;;5.44;86.31;99624.34;5043331;28;20868;-84
2022/02/07 00:51:56;;;;;;;5.40;4.13;;;;;;;5.48;86.61;99640.81;5037450;28;20395;-84
2022/02/07 00:54:22;;;;;;;2.70;2.37;;;;;;;5.46;86.15;99664.44;5040553;28;20395;-85
2022/02/07 00:56:47;;;;;;;12.80;10.10;;;;;;;5.50;86.65;99685.22;5037345;28;20415;-84
2022/02/07 00:59:13;;;;;;;1.10;1.00;;;;;;;5.44;87.36;99688.84;5037516;28;20418;-84
2022/02/07 01:01:39;;;;;;;0.82;0.65;;;;;;;5.42;86.96;99700.88;5043060;28;20408;-84
2022/02/07 01:04:04;;;;;;;1.75;0.50;;;;;;;5.47;87.19;99706.34;5037868;28;20450;-83
2022/02/07 01:06:30;;;;;;;1.17;0.57;;;;;;;5.47;86.56;99709.88;5046972;28;20866;-84
2022/02/07 01:09:10;;;;;;;0.80;0.70;;;;;;;5.46;86.89;99697.50;5033812;28;20819;-84
2022/02/07 01:14:16;;;;;;;1.25;0.63;;;;;;;5.48;87.04;99730.31;5036737;28;20406;-85
2022/02/07 01:19:46;;;;;;;1.55;0.50;;;;;;;5.31;86.00;99761.56;5032095;28;20395;-84
2022/02/07 01:46:56;;;;;;;1.30;1.20;;;;;;;5.46;84.27;99863.28;5037206;28;20375;-86
2022/02/07 01:54:21;;;;;;;2.50;0.85;;;;;;;5.60;84.58;99897.00;5042908;28;20489;-84
2022/02/07 01:56:46;;;;;;;1.23;0.40;;;;;;;5.66;83.99;99906.88;5042561;28;20419;-84
2022/02/07 01:59:11;;;;;;;1.38;0.30;;;;;;;5.57;84.42;99910.88;5042451;28;20412;-85
2022/02/07 02:01:37;;;;;;;2.20;0.40;;;;;;;5.44;84.52;99925.31;5035313;28;20493;-85
2022/02/07 02:04:04;;;;;;;2.63;0.80;;;;;;;5.44;84.60;99917.25;5038990;28;20397;-84
2022/02/07 02:06:30;;;;;;;1.30;0.60;;;;;;;5.39;84.56;99937.78;5039578;28;20756;-84
2022/02/07 02:08:55;;;;;;;2.20;0.40;;;;;;;5.36;85.04;99946.28;5038451;28;20410;-84
2022/02/07 02:11:21;;;;;;;1.57;0.53;;;;;;;5.34;85.07;99959.94;5046801;28;20396;-84
2022/02/07 02:16:40;;;;;;;2.40;0.40;;;;;;;5.24;84.11;99973.06;5043816;28;20466;-85
2022/02/07 02:35:25;;;;;;;3.42;0.95;;;;;;;5.22;83.40;100004.69;5046847;28;20377;-84
2022/02/07 02:38:04;;;;;;;3.25;0.70;;;;;;;5.29;82.70;100002.78;5038258;28;20880;-84
2022/02/07 02:46:01;;;;;;;4.40;0.68;;;;;;;5.20;80.72;100021.03;5039986;28;20400;-84
2022/02/07 02:48:28;;;;;;;2.50;0.80;;;;;;;5.19;80.70;100024.78;5049171;28;20477;-84
2022/02/07 02:50:55;;;;;;;4.32;1.05;;;;;;;5.10;80.48;100018.00;5035813;28;20409;-84
2022/02/07 02:53:21;;;;;;;7.80;1.00;;;;;;;5.01;81.19;100027.41;5049327;28;20813;-84
2022/02/07 02:55:48;;;;;;;5.30;1.35;;;;;;;4.97;81.40;100039.59;5042254;28;20410;-85
2022/02/07 02:58:18;;;;;;;3.63;1.25;;;;;;;4.91;80.15;100048.53;5044779;28;20460;-84
2022/02/07 03:00:45;;;;;;;4.77;1.07;;;;;;;4.92;80.80;100052.88;5033144;28;20876;-84
2022/02/07 03:03:10;;;;;;;5.72;1.05;;;;;;;4.95;80.27;100063.19;5033987;28;20731;-85
2022/02/07 03:05:35;;;;;;;3.83;1.00;;;;;;;4.91;79.95;100069.19;5042021;28;20888;-84
2022/02/07 03:08:01;;;;;;;4.73;0.93;;;;;;;4.92;79.56;100076.22;5048904;28;20484;-84
2022/02/07 03:10:42;;;;;;;4.97;0.90;;;;;;;4.91;79.52;100091.50;5046194;28;20417;-85
2022/02/07 03:13:18;;;;;;;4.60;1.10;;;;;;;4.89;79.23;100098.13;5047356;28;20407;-84
2022/02/07 03:18:31;;;;;;;5.28;1.40;;;;;;;4.89;78.79;100133.88;5049572;28;20408;-85
2022/02/07 03:20:57;;;;;;;4.50;1.10;;;;;;;4.89;79.12;100139.25;5038633;28;20393;-85
2022/02/07 03:23:23;;;;;;;4.97;1.00;;;;;;;4.88;79.08;100151.00;5032731;28;20482;-83
2022/02/07 03:25:49;;;;;;;5.28;1.15;;;;;;;4.91;78.78;100150.56;5033800;28;20391;-84
2022/02/07 03:28:16;;;;;;;4.47;1.02;;;;;;;4.92;78.24;100164.81;5050037;28;20399;-82
2022/02/07 03:30:41;;;;;;;3.10;0.80;;;;;;;4.91;78.44;100184.66;5048516;28;20387;-84
2022/02/07 03:33:07;;;;;;;3.63;0.90;;;;;;;5.04;78.42;100188.09;5041192;28;20401;-83
2022/02/07 03:35:33;;;;;;;2.83;0.83;;;;;;;5.05;78.63;100194.28;5051879;28;20416;-83
2022/02/07 03:37:59;;;;;;;5.27;0.97;;;;;;;5.09;78.37;100219.69;5041226;28;20393;-83
2022/02/07 03:40:24;;;;;;;5.50;1.20;;;;;;;5.18;79.19;100256.00;5037672;28;20591;-83
2022/02/07 03:42:49;;;;;;;3.77;0.80;;;;;;;5.24;78.34;100293.56;5043745;28;20857;-83
2022/02/07 03:45:15;;;;;;;4.77;0.83;;;;;;;5.23;78.95;100307.25;5043934;28;20390;-83
2022/02/07 03:47:40;;;;;;;4.43;0.77;;;;;;;5.03;80.58;100326.13;5052919;28;20426;-83
2022/02/07 03:50:07;;;;;;;2.73;0.70;;;;;;;4.91;81.98;100317.06;5047673;28;20400;-83
2022/02/07 03:52:32;;;;;;;4.10;0.70;;;;;;;4.89;82.54;100319.13;5055832;28;20872;-84
2022/02/07 03:54:57;;;;;;;5.00;0.75;;;;;;;4.91;82.70;100319.75;5042442;28;20417;-83
2022/02/07 03:57:23;;;;;;;3.37;0.57;;;;;;;4.92;83.07;100325.94;5038000;28;20418;-83
2022/02/07 03:59:48;;;;;;;1.60;0.90;;;;;;;4.91;83.99;100345.75;5048196;28;20406;-84
2022/02/07 04:02:14;;;;;;;4.00;0.70;;;;;;;4.85;84.29;100355.50;5043765;28;20401;-84
2022/02/07 04:04:42;;;;;;;2.03;0.40;;;;;;;4.79;84.65;100368.94;5043663;28;20487;-84
2022/02/07 04:07:09;;;;;;;3.22;0.70;;;;;;;4.78;84.68;100359.22;5044580;28;20768;-83
2022/02/07 04:09:40;;;;;;;3.47;0.90;;;;;;;4.78;84.84;100364.59;5040398;28;20490;-84
2022/02/07 04:12:14;;;;;;;2.30;1.73;;;;;;;4.77;84.97;100377.22;5046924;28;20403;-83
2022/02/07 04:14:40;;;;;;;2.45;0.80;;;;;;;4.70;85.10;100390.66;5043942;28;20488;-83
2022/02/07 04:17:09;;;;;;;3.20;2.25;;;;;;;4.59;85.28;100388.59;5036346;28;20490;-83
2022/02/07 04:19:35;;;;;;;1.50;0.65;;;;;;;4.58;84.83;100397.66;5042544;28;20758;-84
2022/02/07 04:22:05;;;;;;;4.50;1.70;;;;;;;4.56;84.17;100401.59;5032835;28;20403;-84
2022/02/07 04:24:31;;;;;;;4.03;0.70;;;;;;;4.48;83.72;100410.66;5043686;28;20749;-84
2022/02/07 04:26:56;;;;;;;2.42;0.80;;;;;;;4.42;84.26;100427.59;5037836;28;20387;-84
2022/02/07 04:29:21;;;;;;;6.87;1.30;;;;;;;4.32;84.82;100435.22;5046669;28;20492;-83
2022/02/07 04:31:47;;;;;;;4.37;1.30;;;;;;;4.27;85.77;100444.91;5043083;28;20397;-84
2022/02/07 04:34:12;;;;;;;6.10;1.40;;;;;;;4.27;85.84;100455.66;5041246;28;20388;-83
2022/02/07 04:36:41;;;;;;;7.87;1.70;;;;;;;4.21;85.21;100454.63;5033977;28;20415;-83
2022/02/07 04:39:06;;;;;;;5.57;2.20;;;;;;;4.13;85.77;100474.41;5033929;28;20407;-83
2022/02/07 04:41:32;;;;;;;7.90;1.30;;;;;;;4.12;85.60;100472.72;5045333;28;20410;-83
2022/02/07 04:44:02;;;;;;;7.37;1.40;;;;;;;4.08;85.79;100486.78;5036864;28;20379;-85
2022/02/07 04:49:16;;;;;;;4.13;1.43;;;;;;;3.86;86.07;100496.78;5038610;28;20410;-85
2022/02/07 04:51:58;;;;;;;4.63;1.88;;;;;;;3.86;86.23;100502.16;5042654;28;20406;-83
2022/02/07 05:02:12;;;;;;;4.30;1.05;;;;;;;3.57;87.28;100531.91;5044419;28;20394;-83
2022/02/07 05:04:42;;;;;;;4.35;0.85;;;;;;;3.50;87.54;100542.56;5034549;28;20439;-86
2022/02/07 05:15:20;;;;;;;3.88;1.02;;;;;;;3.53;85.87;100576.19;5039637;28;20868;-85
2022/02/07 05:17:45;;;;;;;4.25;1.17;;;;;;;3.59;85.77;100584.25;5031448;28;20419;-85
2022/02/07 05:20:10;;;;;;;2.50;0.63;;;;;;;3.51;85.91;100589.78;5035846;28;20907;-85
2022/02/07 05:22:37;;;;;;;4.67;0.70;;;;;;;3.54;85.98;100594.75;5049716;28;20888;-85
2022/02/07 05:25:03;;;;;;;3.83;0.80;;;;;;;3.41;86.34;100591.16;5041217;28;20468;-85
2022/02/07 05:27:29;;;;;;;4.10;0.90;;;;;;;3.46;86.16;100597.56;5044996;28;21009;-85
2022/02/07 05:29:57;;;;;;;3.60;0.70;;;;;;;3.38;86.05;100615.66;5042497;28;20492;-85
2022/02/07 05:32:22;;;;;;;2.10;0.70;;;;;;;3.30;86.85;100621.97;5051341;28;20413;-84
2022/02/07 05:34:48;;;;;;;4.30;0.77;;;;;;;3.36;86.69;100633.78;5051194;28;20782;-84
2022/02/07 05:37:16;;;;;;;2.80;0.70;;;;;;;3.27;86.22;100632.25;5050155;28;20468;-84
2022/02/07 05:39:45;;;;;;;6.25;0.90;;;;;;;3.12;86.42;100635.84;5050872;28;20402;-84
2022/02/07 05:42:10;;;;;;;5.28;1.25;;;;;;;3.13;85.88;100650.88;5037692;28;20426;-84
2022/02/07 05:44:38;;;;;;;4.63;1.07;;;;;;;3.20;85.57;100647.41;5042834;28;20397;-84
2022/02/07 05:47:04;;;;;;;4.70;1.38;;;;;;;3.20;85.39;100650.94;5041814;28;20387;-85
2022/02/07 05:49:30;;;;;;;4.60;1.45;;;;;;;3.19;84.85;100656.50;5052217;28;20933;-84
2022/02/07 05:51:56;;;;;;;8.00;1.70;;;;;;;3.21;85.22;100662.47;5046243;28;20461;-84
2022/02/07 05:54:21;;;;;;;5.57;1.93;;;;;;;3.25;84.66;100666.44;5036816;28;20434;-84
2022/02/07 05:56:47;;;;;;;4.22;1.50;;;;;;;3.13;84.64;100677.66;5039745;28;20444;-84
2022/02/07 05:59:12;;;;;;;6.57;1.67;;;;;;;3.04;84.87;100686.00;5038083;28;20399;-84
2022/02/07 06:01:38;;;;;;;6.00;1.57;;;;;;;3.09;84.42;100695.13;5032898;28;20399;-85
2022/02/07 06:04:03;;;;;;;6.33;1.40;;;;;;;3.29;83.94;100700.69;5033388;28;20773;-84
2022/02/07 06:06:28;;;;;;;8.27;2.10;;;;;;;3.06;84.03;100703.53;5043635;28;20394;-84
2022/02/07 06:08:54;;;;;;;7.90;2.00;;;;;;;3.13;84.10;100725.84;5042342;28;20425;-84
2022/02/07 06:11:19;;;;;;;6.67;2.77;;;;;;;3.14;83.89;100726.69;5043290;28;20432;-87
2022/02/07 06:13:44;;;;;;;6.93;2.00;;;;;;;3.01;84.31;100738.09;5035509;28;20403;-82
2022/02/07 06:16:14;;;;;;;5.83;1.80;;;;;;;2.99;84.67;100740.13;5044967;28;20453;-84
2022/02/07 06:18:40;;;;;;;13.35;3.40;;;;;;;3.21;84.00;100756.22;5031809;28;20464;-83
2022/02/07 06:21:06;;;;;;;15.10;4.20;;;;;;;3.26;83.50;100759.97;5045551;28;20393;-84
2022/02/07 06:23:32;;;;;;;6.75;2.25;;;;;;;3.35;83.55;100763.38;5051302;28;20431;-83
2022/02/07 06:25:58;;;;;;;6.65;1.80;;;;;;;3.35;83.22;100769.56;5042824;28;20489;-85
2022/02/07 06:28:24;;;;;;;4.63;1.35;;;;;;;3.30;83.30;100771.13;5046575;28;20493;-85
2022/02/07 06:30:49;;;;;;;6.23;2.27;;;;;;;3.37;83.20;100780.91;5042873;28;20449;-86
2022/02/07 06:33:14;;;;;;;7.50;3.30;;;;;;;3.32;82.17;100786.03;5037355;28;20387;-83
2022/02/07 06:35:40;;;;;;;7.72;3.13;;;;;;;3.26;82.86;100794.78;5036347;28;20502;-86
2022/02/07 06:38:05;;;;;;;7.60;3.40;;;;;;;3.26;82.75;100810.84;5041147;28;20406;-88
2022/02/07 06:40:30;;;;;;;5.27;2.20;;;;;;;3.21;81.33;100813.28;5045981;28;20401;-87
2022/02/07 06:42:56;;;;;;;6.30;2.17;;;;;;;3.20;80.84;100816.13;5054280;28;20415;-84
2022/02/07 06:45:21;;;;;;;7.37;2.10;;;;;;;3.17;80.54;100811.16;5020479;28;20415;-88
2022/02/07 06:47:46;;;;;;;6.47;1.40;;;;;;;3.22;81.17;100819.47;5036977;28;20435;-84
2022/02/07 06:50:13;;;;;;;5.83;1.10;;;;;;;3.18;80.44;100828.91;5043882;28;21307;-85
2022/02/07 06:52:39;;;;;;;6.50;1.13;;;;;;;3.21;81.31;100828.50;5038224;28;20482;-85
2022/02/07 06:55:05;;;;;;;7.53;1.30;;;;;;;3.12;80.05;100839.34;5050621;28;20564;-85
2022/02/07 06:57:30;;;;;;;6.87;1.10;;;;;;;3.01;80.98;100844.34;5051201;28;20452;-83
2022/02/07 06:59:55;;;;;;;3.53;0.93;;;;;;;3.07;81.18;100854.31;5050116;28;20392;-84
2022/02/07 07:02:26;;;;;;;6.50;1.60;;;;;;;3.19;80.45;100866.22;5038940;28;20399;-86
2022/02/07 07:04:51;;;;;;;6.40;1.83;;;;;;;3.34;79.75;100871.53;5050882;28;20401;-86
2022/02/07 07:07:18;;;;;;;6.35;1.42;;;;;;;3.47;79.48;100885.09;5048028;28;20477;-84
2022/02/07 07:09:45;;;;;;;5.05;1.30;;;;;;;3.58;78.98;100884.59;5044248;28;20398;-85
2022/02/07 07:12:11;;;;;;;8.02;1.60;;;;;;;3.70;78.73;100898.31;5042237;28;20811;-83
2022/02/07 07:14:49;;;;;;;7.90;1.20;;;;;;;3.79;79.00;100899.88;5051085;28;20397;-83
2022/02/07 07:17:14;;;;;;;6.20;1.35;;;;;;;3.82;77.67;100905.66;5035278;28;20459;-84
2022/02/07 07:19:39;;;;;;;6.07;1.40;;;;;;;3.81;78.01;100912.06;5047836;28;20393;-84
2022/02/07 07:22:06;;;;;;;7.30;1.27;;;;;;;3.89;78.27;100911.94;5049080;28;20396;-83
2022/02/07 07:24:33;;;;;;;12.57;2.60;;;;;;;3.84;77.98;100921.59;5049550;28;20447;-85
2022/02/07 07:26:59;;;;;;;5.47;1.30;;;;;;;3.83;77.71;100925.28;5039955;28;20801;-80
2022/02/07 07:29:29;;;;;;;4.63;1.73;;;;;;;3.91;77.64;100939.41;5042326;28;20431;-85
2022/02/07 07:32:06;;;;;;;6.53;1.40;;;;;;;3.84;78.79;100935.00;5046572;28;20397;-83
2022/02/07 07:34:31;;;;;;;4.93;1.25;;;;;;;3.81;78.61;100938.06;5037451;28;20394;-83
2022/02/07 07:36:57;;;;;;;6.97;1.90;;;;;;;3.85;79.66;100953.59;5048931;28;20431;-83
2022/02/07 07:39:23;;;;;;;6.13;1.60;;;;;;;3.85;80.01;100944.69;5041169;28;20403;-83
2022/02/07 07:41:49;;;;;;;4.22;2.00;;;;;;;3.88;79.12;100947.84;5041522;28;20461;-85
2022/02/07 07:44:17;;;;;;;7.15;1.70;;;;;;;3.88;79.53;100961.25;5048803;28;20409;-84
2022/02/07 07:46:43;;;;;;;6.70;1.90;;;;;;;3.91;78.90;100952.81;5040182;28;20405;-84
2022/02/07 07:49:13;;;;;;;7.03;2.50;;;;;;;3.90;78.86;100961.88;5041349;28;20395;-84
2022/02/07 08:02:48;;;;;;;7.93;2.10;;;;;;;3.95;81.04;100993.50;5051029;28;20915;-84
2022/02/07 08:05:42;;;;;;;5.25;1.80;;;;;;;4.12;79.99;101001.09;5042363;28;20416;-83
2022/02/07 08:08:20;;;;;;;8.00;2.38;;;;;;;4.06;80.21;101001.88;5007941;28;20391;-83
2022/02/07 08:10:51;;;;;;;11.00;4.43;;;;;;;4.08;80.44;101005.19;5032876;28;20398;-84
2022/02/07 08:13:18;;;;;;;8.10;2.85;;;;;;;4.03;80.38;101010.28;5047625;28;20397;-84
2022/02/07 08:15:43;;;;;;;7.85;2.80;;;;;;;4.12;80.46;101024.41;5048465;28;20425;-84
2022/02/07 08:18:09;;;;;;;7.47;1.58;;;;;;;4.24;79.76;101030.13;5041824;28;20395;-83
2022/02/07 08:20:35;;;;;;;10.55;2.78;;;;;;;4.40;79.25;101036.09;5039229;28;20440;-84
2022/02/07 08:23:07;;;;;;;15.35;2.92;;;;;;;4.29;79.53;101052.66;5039833;28;20395;-84
2022/02/07 08:25:34;;;;;;;9.75;2.53;;;;;;;4.30;78.88;101056.19;5046089;28;20409;-84
2022/02/07 08:28:00;;;;;;;6.73;2.07;;;;;;;4.35;77.95;101061.81;5040893;28;20975;-83
2022/02/07 08:30:26;;;;;;;8.02;2.72;;;;;;;4.38;78.19;101064.13;5032424;28;20409;-83
2022/02/07 08:32:51;;;;;;;8.63;1.97;;;;;;;4.60;76.68;101068.50;5033361;28;20391;-84
2022/02/07 08:35:16;;;;;;;9.00;2.10;;;;;;;4.78;74.78;101071.53;5047224;28;20391;-83
2022/02/07 08:37:42;;;;;;;10.45;2.28;;;;;;;5.22;75.10;101084.75;5035387;28;20843;-84
2022/02/07 08:40:08;;;;;;;11.03;2.17;;;;;;;5.21;75.06;101083.06;5042860;28;20464;-84
2022/02/07 08:42:36;;;;;;;5.17;1.70;;;;;;;5.43;74.27;101090.09;5045826;28;20418;-84
2022/02/07 08:45:12;;;;;;;6.55;1.90;;;;;;;5.59;71.67;101105.91;5034833;28;20395;-83
2022/02/07 08:47:37;;;;;;;5.90;2.22;;;;;;;5.55;72.56;101114.56;5038833;28;20401;-84
2022/02/07 08:50:03;;;;;;;6.30;1.70;;;;;;;5.49;72.89;101129.63;5042267;28;20398;-84
2022/02/07 08:52:28;;;;;;;10.30;2.70;;;;;;;5.55;73.60;101125.31;5045057;28;20824;-83
2022/02/07 08:54:56;;;;;;;9.63;1.93;;;;;;;5.42;72.91;101134.13;5034621;28;20395;-83
2022/02/07 08:57:30;;;;;;;11.95;2.60;;;;;;;5.30;73.11;101137.53;5045185;28;20822;-83
2022/02/07 09:00:05;;;;;;;7.85;2.40;;;;;;;5.28;74.12;101148.47;5042760;28;20409;-84
2022/02/07 09:07:33;;;;;;;9.23;2.45;;;;;;;5.89;72.88;101154.97;5039530;28;20886;-84
2022/02/07 09:09:59;;;;;;;8.93;2.65;;;;;;;6.14;71.77;101148.06;5042521;28;20409;-83
2022/02/07 09:12:24;;;;;;;7.43;2.20;;;;;;;6.05;71.49;101156.50;5035987;28;20393;-83
2022/02/07 09:15:06;;;;;;;7.63;2.63;;;;;;;6.06;71.59;101158.19;5047783;28;20391;-84
2022/02/07 09:17:32;;;;;;;9.77;2.58;;;;;;;5.97;72.14;101167.41;5041503;28;20413;-83
2022/02/07 09:19:57;;;;;;;10.80;2.60;;;;;;;6.21;70.41;101170.47;5037671;28;20445;-83
2022/02/07 09:22:22;;;;;;;8.60;2.50;;;;;;;5.82;71.09;101175.56;5046787;28;20401;-83
2022/02/07 09:24:47;;;;;;;8.37;2.80;;;;;;;5.79;72.82;101186.72;5032082;28;20383;-83
2022/02/07 09:27:13;;;;;;;11.63;2.63;;;;;;;6.19;73.33;101180.59;5041282;28;20944;-83
2022/02/07 09:29:40;;;;;;;7.10;2.40;;;;;;;6.22;70.89;101190.16;5039287;28;20406;-83
2022/02/07 09:32:06;;;;;;;9.05;3.35;;;;;;;6.01;71.67;101190.22;5048229;28;20512;-83
2022/02/07 09:34:32;;;;;;;8.43;2.40;;;;;;;6.66;70.01;101190.53;5035042;28;20474;-83
2022/02/07 09:36:58;;;;;;;8.30;2.67;;;;;;;6.70;67.13;101182.88;5040951;28;20415;-83
2022/02/07 09:39:30;;;;;;;11.33;5.00;;;;;;;6.32;69.54;101189.78;5042364;28;20753;-83
2022/02/07 09:41:57;;;;;;;13.80;5.20;;;;;;;6.45;68.79;101184.47;5039720;28;20417;-83
2022/02/07 09:44:22;;;;;;;9.48;3.03;;;;;;;6.73;67.43;101185.19;5035347;28;20394;-84
2022/02/07 09:46:48;;;;;;;9.30;2.30;;;;;;;6.64;67.46;101189.09;5046036;28;20398;-83
2022/02/07 09:49:18;;;;;;;9.68;2.17;;;;;;;6.61;68.62;101205.66;5058386;28;20501;-83
2022/02/07 09:51:45;;;;;;;14.20;3.72;;;;;;;6.65;67.59;101201.53;5036869;28;20889;-83
2022/02/07 09:54:14;;;;;;;12.25;4.20;;;;;;;6.51;68.95;101222.19;5036066;28;20791;-84
2022/02/07 09:56:40;;;;;;;12.07;4.05;;;;;;;6.62;67.12;101216.22;5047321;28;20423;-84
2022/02/07 09:59:05;;;;;;;10.70;2.83;;;;;;;6.72;66.26;101211.28;5041288;28;20739;-83
2022/02/07 10:01:31;;;;;;;9.93;3.53;;;;;;;6.56;67.80;101211.63;5051009;28;20388;-83
2022/02/07 10:04:20;;;;;;;10.90;3.70;;;;;;;6.48;67.97;101224.44;5053785;28;20812;-83
2022/02/07 10:14:51;;;;;;;11.18;3.58;;;;;;;7.56;62.90;101221.63;5042360;28;20397;-83
2022/02/07 10:39:25;;;;;;;11.43;3.60;;;;;;;8.00;62.48;101269.59;5038742;28;20931;-83
2022/02/07 10:47:21;;;;;;;11.15;3.30;;;;;;;7.64;64.50;101289.69;5050698;28;20397;-83
2022/02/07 10:50:19;;;;;;;15.32;3.35;;;;;;;7.44;62.30;101304.19;5041910;28;20768;-84
2022/02/07 10:52:49;;;;;;;12.55;3.00;;;;;;;7.17;64.14;101305.97;5033319;28;20473;-83
2022/02/07 10:55:25;;;;;;;9.52;2.30;;;;;;;6.86;63.33;101316.41;5039430;28;20752;-83
2022/02/07 10:57:52;;;;;;;6.82;2.50;;;;;;;6.79;64.62;101327.97;5044457;28;20391;-83
2022/02/07 11:00:23;;;;;;;6.80;2.40;;;;;;;6.58;66.66;101341.53;5044777;28;20748;-83
2022/02/07 11:03:24;;;;;;;11.82;3.28;;;;;;;6.48;66.97;101345.59;5037920;28;20418;-83
2022/02/07 11:08:19;;;;;;;10.00;2.87;;;;;;;6.34;66.29;101350.06;5035995;28;20438;-85
2022/02/07 11:16:22;;;;;;;10.32;4.13;;;;;;;6.16;66.88;101372.06;5053109;28;20746;-83
2022/02/07 11:28:00;;;;;;;11.73;2.40;;;;;;;5.67;68.63;101373.81;5051382;28;20489;-83
2022/02/07 11:30:34;;;;;;;9.02;3.30;;;;;;;5.69;68.55;101388.75;5052895;28;20416;-83
2022/02/07 11:32:59;;;;;;;7.95;2.38;;;;;;;5.73;68.41;101389.19;5052817;28;20394;-83
2022/02/07 11:35:34;;;;;;;7.73;2.77;;;;;;;5.72;68.82;101401.84;5053131;28;20420;-83
2022/02/07 11:38:12;;;;;;;8.50;2.53;;;;;;;5.92;69.35;101412.00;5053522;28;20465;-83
2022/02/07 11:40:39;;;;;;;7.32;2.45;;;;;;;5.87;69.09;101422.47;5068591;28;20394;-83
2022/02/07 11:43:19;;;;;;;8.25;2.22;;;;;;;5.73;68.61;101426.84;5035339;28;20510;-83
2022/02/07 11:46:08;;;;;;;11.70;2.80;;;;;;;5.76;68.61;101426.50;5034763;28;20426;-83
2022/02/07 11:48:46;;;;;;;9.57;2.58;;;;;;;5.72;69.51;101428.72;5047415;28;20489;-83
2022/02/07 11:51:15;;;;;;;9.02;2.42;;;;;;;5.66;69.69;101440.22;5040981;28;20447;-83
2022/02/07 11:53:47;;;;;;;6.25;1.95;;;;;;;5.76;70.02;101448.00;5041202;28;20870;-83
2022/02/07 11:59:13;;;;;;;13.73;3.05;;;;;;;5.88;69.74;101445.69;5043277;28;20488;-83
2022/02/07 12:02:00;;;;;;;12.48;3.30;;;;;;;5.73;70.05;101448.34;5040436;28;20478;-83
2022/02/07 12:04:48;;;;;;;11.43;3.42;;;;;;;5.80;70.80;101456.50;5047877;28;20469;-83
2022/02/07 12:07:20;;;;;;;8.00;2.72;;;;;;;5.82;69.99;101457.16;5043100;28;20753;-83
2022/02/07 12:12:43;;;;;;;11.65;2.95;;;;;;;5.81;69.89;101460.88;5038819;28;20390;-83
2022/02/07 12:15:11;;;;;;;9.57;2.40;;;;;;;5.91;69.06;101458.75;5035600;28;20430;-84
2022/02/07 12:17:39;;;;;;;6.63;2.33;;;;;;;5.83;69.53;101465.03;5032471;28;20447;-83
2022/02/07 12:20:06;;;;;;;10.70;2.47;;;;;;;5.93;69.47;101460.22;5049057;28;20390;-83
2022/02/07 12:22:53;;;;;;;9.02;2.10;;;;;;;6.13;68.47;101457.72;5036203;28;20452;-83
2022/02/07 12:28:15;;;;;;;16.60;2.72;;;;;;;6.17;68.58;101469.78;5036473;28;20399;-83
2022/02/07 12:33:24;;;;;;;11.70;3.08;;;;;;;6.00;68.61;101466.50;5044862;28;20507;-84
2022/02/07 12:35:50;;;;;;;10.15;3.03;;;;;;;5.96;68.52;101469.78;5034152;28;20489;-85
2022/02/07 12:38:15;;;;;;;9.27;3.00;;;;;;;6.00;68.77;101481.81;5036393;28;20852;-83
2022/02/07 12:40:42;;;;;;;8.97;2.73;;;;;;;6.06;68.80;101481.06;5042822;28;20952;-85
2022/02/07 12:43:10;;;;;;;9.45;2.90;;;;;;;6.14;68.76;101478.25;5051829;28;20896;-87
2022/02/07 12:45:38;;;;;;;14.02;2.53;;;;;;;6.19;68.11;101478.53;5035628;28;20410;-82
2022/02/07 12:48:08;;;;;;;10.65;2.17;;;;;;;6.12;68.12;101489.22;5017935;28;20421;-83
2022/02/07 12:50:34;;;;;;;16.67;2.78;;;;;;;6.01;68.88;101480.78;5040721;28;20401;-83
2022/02/07 12:52:59;;;;;;;7.70;2.03;;;;;;;6.02;69.37;101482.47;5040567;28;20827;-85
2022/02/07 12:55:24;;;;;;;9.13;3.05;;;;;;;6.05;69.41;101487.47;5032221;28;20505;-85
2022/02/07 12:57:49;;;;;;;14.20;3.20;;;;;;;6.08;69.19;101495.16;5038424;28;20412;-85
2022/02/07 13:00:17;;;;;;;11.47;2.13;;;;;;;6.06;69.80;101492.66;5041304;28;20458;-84
2022/02/07 13:02:45;;;;;;;10.73;2.25;;;;;;;6.06;69.41;101497.22;5042614;28;20406;-86
2022/02/07 13:05:16;;;;;;;7.20;2.27;;;;;;;6.10;69.33;101495.78;5047568;28;20378;-85
2022/02/07 13:07:46;;;;;;;8.32;2.60;;;;;;;6.03;69.11;101500.25;5032255;28;20406;-84
2022/02/07 13:10:22;;;;;;;17.60;2.72;;;;;;;6.07;69.31;101483.56;5049804;28;20440;-82
2022/02/07 13:15:34;;;;;;;11.45;3.08;;;;;;;6.21;68.39;101492.59;5050816;28;20765;-83
2022/02/07 13:18:04;;;;;;;10.25;2.95;;;;;;;6.17;68.84;101485.94;5041783;28;20472;-85
2022/02/07 13:20:29;;;;;;;10.53;3.10;;;;;;;6.31;67.11;101489.59;5033500;28;20522;-87
2022/02/07 13:23:10;;;;;;;14.00;3.70;;;;;;;6.39;67.09;101487.59;5036156;28;20493;-81
2022/02/07 13:25:38;;;;;;;11.02;3.28;;;;;;;6.44;67.68;101484.34;5038206;28;20884;-84
2022/02/07 13:28:03;;;;;;;7.78;2.13;;;;;;;6.55;66.97;101486.53;5042190;28;20401;-85
2022/02/07 13:30:29;;;;;;;10.40;2.43;;;;;;;6.47;67.38;101497.41;5050977;28;20945;-83
2022/02/07 13:32:54;;;;;;;8.10;2.30;;;;;;;6.46;66.95;101493.03;5047052;28;20424;-85
2022/02/07 13:35:21;;;;;;;9.10;2.58;;;;;;;6.53;67.30;101492.09;5031810;28;20411;-83
2022/02/07 13:37:48;;;;;;;11.82;4.47;;;;;;;6.82;67.01;101492.97;5031614;28;20395;-83
2022/02/07 13:40:17;;;;;;;10.98;2.65;;;;;;;6.72;67.32;101490.59;5043885;28;20401;-84
2022/02/07 13:42:44;;;;;;;11.02;2.67;;;;;;;6.80;66.90;101498.53;5046945;28;20417;-82
2022/02/07 13:45:13;;;;;;;10.05;3.00;;;;;;;7.03;66.64;101503.69;5045965;28;20458;-84
2022/02/07 13:47:44;;;;;;;6.50;2.10;;;;;;;6.87;66.77;101506.69;5041834;28;20441;-82
2022/02/07 13:50:12;;;;;;;11.73;2.50;;;;;;;6.72;66.68;101509.44;5042827;28;20381;-83
2022/02/07 13:52:40;;;;;;;14.27;2.97;;;;;;;6.68;66.88;101498.25;5039289;28;20933;-84
2022/02/07 13:55:28;;;;;;;13.40;2.50;;;;;;;6.63;67.65;101508.75;5036171;28;20401;-84
2022/02/07 13:58:04;;;;;;;5.80;2.10;;;;;;;6.75;66.78;101514.47;5040908;28;20406;-84
2022/02/07 14:01:02;;;;;;;6.78;2.00;;;;;;;6.68;66.42;101521.66;5035356;28;20942;-84
2022/02/07 14:03:40;;;;;;;7.60;2.83;;;;;;;6.71;65.35;101526.66;5041307;28;20433;-86
2022/02/07 14:06:08;;;;;;;9.48;4.15;;;;;;;6.54;65.66;101527.94;5029977;28;20966;-84
2022/02/07 14:08:54;;;;;;;10.98;3.42;;;;;;;6.70;65.23;101524.97;5041715;28;20888;-83
2022/02/07 14:11:26;;;;;;;9.82;3.20;;;;;;;6.77;64.79;101526.72;5040568;28;20747;-84
2022/02/07 14:14:05;;;;;;;7.47;2.72;;;;;;;6.78;64.13;101535.63;5037764;28;20389;-83
2022/02/07 14:16:32;;;;;;;9.82;2.13;;;;;;;6.74;65.00;101540.56;5031802;28;20733;-83
2022/02/07 14:18:57;;;;;;;9.60;2.05;;;;;;;6.81;64.09;101547.88;5039220;28;20413;-84
2022/02/07 14:21:26;;;;;;;9.75;1.95;;;;;;;6.82;64.27;101552.25;5024748;28;20490;-84
2022/02/07 14:23:53;;;;;;;6.97;2.50;;;;;;;6.84;64.75;101551.03;5049745;28;20393;-84